sensor_id;sensor_type;location;lat;lon;timestamp;temperature;humidity
46754;DHT22;32500;50.620;3.400;2023-08-17T00:00:25;20.50;85.00
46754;DHT22;32500;50.620;3.400;2023-08-17T00:02:52;20.40;85.00
46754;DHT22;32500;50.620;3.400;2023-08-17T00:05:17;20.40;84.90
46754;DHT22;32500;50.620;3.400;2023-08-17T00:07:43;20.40;84.90
46754;DHT22;32500;50.620;3.400;2023-08-17T00:10:09;20.40;85.20
46754;DHT22;32500;50.620;3.400;2023-08-17T00:12:34;20.40;85.00
46754;DHT22;32500;50.620;3.400;2023-08-17T00:15:00;20.40;85.10
46754;DHT22;32500;50.620;3.400;2023-08-17T00:17:26;20.40;85.20
46754;DHT22;32500;50.620;3.400;2023-08-17T00:19:52;20.30;85.10
46754;DHT22;32500;50.620;3.400;2023-08-17T00:22:17;20.30;85.10
46754;DHT22;32500;50.620;3.400;2023-08-17T00:24:43;20.30;85.10
46754;DHT22;32500;50.620;3.400;2023-08-17T00:27:10;20.30;85.10
46754;DHT22;32500;50.620;3.400;2023-08-17T00:29:36;20.30;85.10
46754;DHT22;32500;50.620;3.400;2023-08-17T00:32:02;20.30;85.40
46754;DHT22;32500;50.620;3.400;2023-08-17T00:34:28;20.30;85.20
46754;DHT22;32500;50.620;3.400;2023-08-17T00:36:54;20.20;85.80
46754;DHT22;32500;50.620;3.400;2023-08-17T00:39:19;20.30;85.20
46754;DHT22;32500;50.620;3.400;2023-08-17T00:41:45;20.20;85.20
46754;DHT22;32500;50.620;3.400;2023-08-17T00:44:11;20.20;85.20
46754;DHT22;32500;50.620;3.400;2023-08-17T00:46:38;20.20;85.30
46754;DHT22;32500;50.620;3.400;2023-08-17T00:49:03;20.20;85.30
46754;DHT22;32500;50.620;3.400;2023-08-17T00:51:29;20.10;85.50
46754;DHT22;32500;50.620;3.400;2023-08-17T00:53:58;20.10;85.50
46754;DHT22;32500;50.620;3.400;2023-08-17T00:56:25;20.10;85.40
46754;DHT22;32500;50.620;3.400;2023-08-17T00:58:51;20.10;85.50
46754;DHT22;32500;50.620;3.400;2023-08-17T01:01:17;20.10;85.50
46754;DHT22;32500;50.620;3.400;2023-08-17T01:03:43;20.10;85.50
46754;DHT22;32500;50.620;3.400;2023-08-17T01:06:09;20.10;85.50
46754;DHT22;32500;50.620;3.400;2023-08-17T01:08:36;20.10;85.60
46754;DHT22;32500;50.620;3.400;2023-08-17T01:13:49;20.00;85.70
46754;DHT22;32500;50.620;3.400;2023-08-17T01:16:24;20.00;85.70
46754;DHT22;32500;50.620;3.400;2023-08-17T01:18:52;20.00;85.90
46754;DHT22;32500;50.620;3.400;2023-08-17T01:21:17;19.90;85.80
46754;DHT22;32500;50.620;3.400;2023-08-17T01:23:45;20.00;86.00
46754;DHT22;32500;50.620;3.400;2023-08-17T01:26:11;19.90;85.90
46754;DHT22;32500;50.620;3.400;2023-08-17T01:28:46;19.90;86.20
46754;DHT22;32500;50.620;3.400;2023-08-17T01:31:28;19.90;86.10
46754;DHT22;32500;50.620;3.400;2023-08-17T01:34:00;19.80;86.70
46754;DHT22;32500;50.620;3.400;2023-08-17T01:36:43;19.80;86.10
46754;DHT22;32500;50.620;3.400;2023-08-17T01:39:11;19.80;86.20
46754;DHT22;32500;50.620;3.400;2023-08-17T01:41:37;19.80;86.30
46754;DHT22;32500;50.620;3.400;2023-08-17T01:44:04;19.80;86.40
46754;DHT22;32500;50.620;3.400;2023-08-17T01:46:31;19.70;86.50
46754;DHT22;32500;50.620;3.400;2023-08-17T01:49:00;19.70;86.50
46754;DHT22;32500;50.620;3.400;2023-08-17T01:51:25;19.70;86.50
46754;DHT22;32500;50.620;3.400;2023-08-17T01:53:51;19.70;87.30
46754;DHT22;32500;50.620;3.400;2023-08-17T01:56:17;19.70;86.60
46754;DHT22;32500;50.620;3.400;2023-08-17T01:58:42;19.70;86.60
46754;DHT22;32500;50.620;3.400;2023-08-17T02:01:08;19.70;86.90
46754;DHT22;32500;50.620;3.400;2023-08-17T02:03:34;19.60;86.70
46754;DHT22;32500;50.620;3.400;2023-08-17T02:05:59;19.60;86.70
46754;DHT22;32500;50.620;3.400;2023-08-17T02:08:25;19.60;87.00
46754;DHT22;32500;50.620;3.400;2023-08-17T02:10:51;19.60;87.50
46754;DHT22;32500;50.620;3.400;2023-08-17T02:13:18;19.60;86.80
46754;DHT22;32500;50.620;3.400;2023-08-17T02:15:44;19.60;86.80
46754;DHT22;32500;50.620;3.400;2023-08-17T02:18:10;19.60;87.00
46754;DHT22;32500;50.620;3.400;2023-08-17T02:20:35;19.60;87.10
46754;DHT22;32500;50.620;3.400;2023-08-17T02:23:01;19.60;86.80
46754;DHT22;32500;50.620;3.400;2023-08-17T02:25:27;19.50;87.00
46754;DHT22;32500;50.620;3.400;2023-08-17T02:27:59;19.50;86.90
46754;DHT22;32500;50.620;3.400;2023-08-17T02:30:25;19.50;87.00
46754;DHT22;32500;50.620;3.400;2023-08-17T02:32:51;19.50;87.10
46754;DHT22;32500;50.620;3.400;2023-08-17T02:35:16;19.50;87.10
46754;DHT22;32500;50.620;3.400;2023-08-17T02:37:42;19.50;87.00
46754;DHT22;32500;50.620;3.400;2023-08-17T02:40:08;19.50;87.30
46754;DHT22;32500;50.620;3.400;2023-08-17T02:42:33;19.50;87.20
46754;DHT22;32500;50.620;3.400;2023-08-17T02:44:59;19.40;87.80
46754;DHT22;32500;50.620;3.400;2023-08-17T02:47:25;19.40;87.10
46754;DHT22;32500;50.620;3.400;2023-08-17T02:49:50;19.40;87.40
46754;DHT22;32500;50.620;3.400;2023-08-17T02:52:16;19.40;87.10
46754;DHT22;32500;50.620;3.400;2023-08-17T02:54:41;19.40;87.50
46754;DHT22;32500;50.620;3.400;2023-08-17T02:57:07;19.40;87.50
46754;DHT22;32500;50.620;3.400;2023-08-17T02:59:33;19.40;87.40
46754;DHT22;32500;50.620;3.400;2023-08-17T03:01:59;19.40;87.40
46754;DHT22;32500;50.620;3.400;2023-08-17T03:04:24;19.40;87.80
46754;DHT22;32500;50.620;3.400;2023-08-17T03:06:50;19.40;87.50
46754;DHT22;32500;50.620;3.400;2023-08-17T03:09:15;19.40;87.70
46754;DHT22;32500;50.620;3.400;2023-08-17T03:11:41;19.40;87.40
46754;DHT22;32500;50.620;3.400;2023-08-17T03:14:07;19.40;87.40
46754;DHT22;32500;50.620;3.400;2023-08-17T03:16:32;19.40;88.30
46754;DHT22;32500;50.620;3.400;2023-08-17T03:18:58;19.40;88.30
46754;DHT22;32500;50.620;3.400;2023-08-17T03:21:24;19.40;87.70
46754;DHT22;32500;50.620;3.400;2023-08-17T03:23:50;19.40;89.30
46754;DHT22;32500;50.620;3.400;2023-08-17T03:26:15;19.40;87.70
46754;DHT22;32500;50.620;3.400;2023-08-17T03:28:41;19.40;88.30
46754;DHT22;32500;50.620;3.400;2023-08-17T03:31:07;19.40;87.80
46754;DHT22;32500;50.620;3.400;2023-08-17T03:33:34;19.30;89.70
46754;DHT22;32500;50.620;3.400;2023-08-17T03:36:00;19.30;87.80
46754;DHT22;32500;50.620;3.400;2023-08-17T03:38:26;19.40;88.70
46754;DHT22;32500;50.620;3.400;2023-08-17T03:40:52;19.30;88.70
46754;DHT22;32500;50.620;3.400;2023-08-17T03:43:17;19.30;89.70
46754;DHT22;32500;50.620;3.400;2023-08-17T03:45:43;19.40;89.10
46754;DHT22;32500;50.620;3.400;2023-08-17T03:48:09;19.30;89.40
46754;DHT22;32500;50.620;3.400;2023-08-17T03:50:35;19.30;89.10
46754;DHT22;32500;50.620;3.400;2023-08-17T03:53:01;19.30;89.90
46754;DHT22;32500;50.620;3.400;2023-08-17T03:55:26;19.30;87.90
46754;DHT22;32500;50.620;3.400;2023-08-17T03:57:52;19.20;88.10
46754;DHT22;32500;50.620;3.400;2023-08-17T04:00:18;19.20;88.10
46754;DHT22;32500;50.620;3.400;2023-08-17T04:02:44;19.20;88.10
46754;DHT22;32500;50.620;3.400;2023-08-17T04:05:09;19.20;87.90
46754;DHT22;32500;50.620;3.400;2023-08-17T04:07:36;19.20;88.10
46754;DHT22;32500;50.620;3.400;2023-08-17T04:10:02;19.20;87.70
46754;DHT22;32500;50.620;3.400;2023-08-17T04:12:28;19.20;87.70
46754;DHT22;32500;50.620;3.400;2023-08-17T04:14:54;19.20;87.70
46754;DHT22;32500;50.620;3.400;2023-08-17T04:17:19;19.20;87.70
46754;DHT22;32500;50.620;3.400;2023-08-17T04:19:46;19.20;87.70
46754;DHT22;32500;50.620;3.400;2023-08-17T04:22:12;19.20;87.80
46754;DHT22;32500;50.620;3.400;2023-08-17T04:24:37;19.20;87.80
46754;DHT22;32500;50.620;3.400;2023-08-17T04:27:03;19.20;88.10
46754;DHT22;32500;50.620;3.400;2023-08-17T04:29:30;19.20;87.70
46754;DHT22;32500;50.620;3.400;2023-08-17T04:31:57;19.10;87.60
46754;DHT22;32500;50.620;3.400;2023-08-17T04:34:22;19.20;87.90
46754;DHT22;32500;50.620;3.400;2023-08-17T04:36:48;19.10;87.70
46754;DHT22;32500;50.620;3.400;2023-08-17T04:39:14;19.20;88.60
46754;DHT22;32500;50.620;3.400;2023-08-17T04:41:39;19.20;88.00
46754;DHT22;32500;50.620;3.400;2023-08-17T04:44:05;19.10;87.70
46754;DHT22;32500;50.620;3.400;2023-08-17T04:46:31;19.10;88.10
46754;DHT22;32500;50.620;3.400;2023-08-17T04:48:56;19.10;87.80
46754;DHT22;32500;50.620;3.400;2023-08-17T04:51:22;19.10;87.60
46754;DHT22;32500;50.620;3.400;2023-08-17T04:53:47;19.10;87.70
46754;DHT22;32500;50.620;3.400;2023-08-17T04:56:13;19.10;87.60
46754;DHT22;32500;50.620;3.400;2023-08-17T04:58:38;19.10;87.60
46754;DHT22;32500;50.620;3.400;2023-08-17T05:01:04;19.10;87.80
46754;DHT22;32500;50.620;3.400;2023-08-17T05:03:30;19.10;88.10
46754;DHT22;32500;50.620;3.400;2023-08-17T05:05:56;19.10;87.60
46754;DHT22;32500;50.620;3.400;2023-08-17T05:08:22;19.10;87.80
46754;DHT22;32500;50.620;3.400;2023-08-17T05:10:48;19.10;87.80
46754;DHT22;32500;50.620;3.400;2023-08-17T05:13:13;19.10;88.60
46754;DHT22;32500;50.620;3.400;2023-08-17T05:15:39;19.20;92.20
46754;DHT22;32500;50.620;3.400;2023-08-17T05:18:05;19.30;92.10
46754;DHT22;32500;50.620;3.400;2023-08-17T05:20:30;19.30;91.80
46754;DHT22;32500;50.620;3.400;2023-08-17T05:22:57;19.30;91.40
46754;DHT22;32500;50.620;3.400;2023-08-17T05:25:23;19.30;90.80
46754;DHT22;32500;50.620;3.400;2023-08-17T05:27:48;19.30;90.40
46754;DHT22;32500;50.620;3.400;2023-08-17T05:30:15;19.30;90.20
46754;DHT22;32500;50.620;3.400;2023-08-17T05:32:41;19.30;89.90
46754;DHT22;32500;50.620;3.400;2023-08-17T05:35:07;19.30;89.60
46754;DHT22;32500;50.620;3.400;2023-08-17T05:37:32;19.20;89.40
46754;DHT22;32500;50.620;3.400;2023-08-17T05:39:58;19.30;89.40
46754;DHT22;32500;50.620;3.400;2023-08-17T05:42:24;19.30;89.20
46754;DHT22;32500;50.620;3.400;2023-08-17T05:44:49;19.30;89.20
46754;DHT22;32500;50.620;3.400;2023-08-17T05:47:15;19.30;89.40
46754;DHT22;32500;50.620;3.400;2023-08-17T05:49:43;19.30;89.30
46754;DHT22;32500;50.620;3.400;2023-08-17T05:52:09;19.40;89.20
46754;DHT22;32500;50.620;3.400;2023-08-17T05:54:34;19.40;89.10
46754;DHT22;32500;50.620;3.400;2023-08-17T05:57:00;19.40;89.40
46754;DHT22;32500;50.620;3.400;2023-08-17T05:59:25;19.40;89.50
46754;DHT22;32500;50.620;3.400;2023-08-17T06:01:51;19.40;89.30
46754;DHT22;32500;50.620;3.400;2023-08-17T06:04:16;19.40;89.10
46754;DHT22;32500;50.620;3.400;2023-08-17T06:06:42;19.40;89.00
46754;DHT22;32500;50.620;3.400;2023-08-17T06:09:08;19.40;89.40
46754;DHT22;32500;50.620;3.400;2023-08-17T06:11:34;19.50;89.60
46754;DHT22;32500;50.620;3.400;2023-08-17T06:14:00;19.50;89.70
46754;DHT22;32500;50.620;3.400;2023-08-17T06:16:25;19.50;89.50
46754;DHT22;32500;50.620;3.400;2023-08-17T06:18:51;19.50;89.90
46754;DHT22;32500;50.620;3.400;2023-08-17T06:21:16;19.50;89.50
46754;DHT22;32500;50.620;3.400;2023-08-17T06:23:42;19.60;89.80
46754;DHT22;32500;50.620;3.400;2023-08-17T06:26:08;19.60;89.30
46754;DHT22;32500;50.620;3.400;2023-08-17T06:28:34;19.60;89.60
46754;DHT22;32500;50.620;3.400;2023-08-17T06:30:59;19.60;89.40
46754;DHT22;32500;50.620;3.400;2023-08-17T06:33:25;19.60;88.60
46754;DHT22;32500;50.620;3.400;2023-08-17T06:35:51;19.60;89.30
46754;DHT22;32500;50.620;3.400;2023-08-17T06:38:17;19.60;89.20
46754;DHT22;32500;50.620;3.400;2023-08-17T06:40:42;19.60;88.40
46754;DHT22;32500;50.620;3.400;2023-08-17T06:43:08;19.60;89.20
46754;DHT22;32500;50.620;3.400;2023-08-17T06:45:34;19.60;89.20
46754;DHT22;32500;50.620;3.400;2023-08-17T06:48:00;19.50;90.00
46754;DHT22;32500;50.620;3.400;2023-08-17T06:50:25;19.60;90.40
46754;DHT22;32500;50.620;3.400;2023-08-17T06:52:52;19.70;89.90
46754;DHT22;32500;50.620;3.400;2023-08-17T06:55:18;19.80;88.80
46754;DHT22;32500;50.620;3.400;2023-08-17T06:57:43;19.70;89.40
46754;DHT22;32500;50.620;3.400;2023-08-17T07:00:09;19.90;89.40
46754;DHT22;32500;50.620;3.400;2023-08-17T07:02:36;19.90;89.60
46754;DHT22;32500;50.620;3.400;2023-08-17T07:05:02;20.00;88.50
46754;DHT22;32500;50.620;3.400;2023-08-17T07:07:29;20.10;88.50
46754;DHT22;32500;50.620;3.400;2023-08-17T07:09:55;20.20;88.20
46754;DHT22;32500;50.620;3.400;2023-08-17T07:12:22;20.30;86.30
46754;DHT22;32500;50.620;3.400;2023-08-17T07:14:49;20.30;85.90
46754;DHT22;32500;50.620;3.400;2023-08-17T07:17:15;20.20;87.30
46754;DHT22;32500;50.620;3.400;2023-08-17T07:19:41;20.30;87.00
46754;DHT22;32500;50.620;3.400;2023-08-17T07:22:06;20.40;85.70
46754;DHT22;32500;50.620;3.400;2023-08-17T07:24:32;20.40;85.30
46754;DHT22;32500;50.620;3.400;2023-08-17T07:26:58;20.40;86.30
46754;DHT22;32500;50.620;3.400;2023-08-17T07:29:23;20.60;85.40
46754;DHT22;32500;50.620;3.400;2023-08-17T07:31:49;20.60;85.70
46754;DHT22;32500;50.620;3.400;2023-08-17T07:34:15;20.70;85.20
46754;DHT22;32500;50.620;3.400;2023-08-17T07:36:40;20.80;85.60
46754;DHT22;32500;50.620;3.400;2023-08-17T07:39:06;20.90;84.80
46754;DHT22;32500;50.620;3.400;2023-08-17T07:41:32;20.90;83.90
46754;DHT22;32500;50.620;3.400;2023-08-17T07:43:58;20.80;85.10
46754;DHT22;32500;50.620;3.400;2023-08-17T07:46:24;21.00;83.50
46754;DHT22;32500;50.620;3.400;2023-08-17T07:48:49;21.00;83.20
46754;DHT22;32500;50.620;3.400;2023-08-17T07:51:15;21.10;83.00
46754;DHT22;32500;50.620;3.400;2023-08-17T07:53:41;21.10;83.20
46754;DHT22;32500;50.620;3.400;2023-08-17T07:56:07;21.10;82.40
46754;DHT22;32500;50.620;3.400;2023-08-17T07:58:32;21.10;82.60
46754;DHT22;32500;50.620;3.400;2023-08-17T08:00:58;21.00;83.20
46754;DHT22;32500;50.620;3.400;2023-08-17T08:03:24;21.00;84.00
46754;DHT22;32500;50.620;3.400;2023-08-17T08:05:49;21.10;82.50
46754;DHT22;32500;50.620;3.400;2023-08-17T08:08:15;21.20;83.50
46754;DHT22;32500;50.620;3.400;2023-08-17T08:10:43;21.20;82.60
46754;DHT22;32500;50.620;3.400;2023-08-17T08:13:09;21.30;82.50
46754;DHT22;32500;50.620;3.400;2023-08-17T08:15:34;21.40;81.20
46754;DHT22;32500;50.620;3.400;2023-08-17T08:18:00;21.40;81.90
46754;DHT22;32500;50.620;3.400;2023-08-17T08:20:26;21.50;81.40
46754;DHT22;32500;50.620;3.400;2023-08-17T08:22:51;21.50;81.40
46754;DHT22;32500;50.620;3.400;2023-08-17T08:25:17;21.50;80.40
46754;DHT22;32500;50.620;3.400;2023-08-17T08:27:42;21.60;80.50
46754;DHT22;32500;50.620;3.400;2023-08-17T08:30:08;21.50;79.70
46754;DHT22;32500;50.620;3.400;2023-08-17T08:32:34;21.60;80.60
46754;DHT22;32500;50.620;3.400;2023-08-17T08:34:59;21.70;80.00
46754;DHT22;32500;50.620;3.400;2023-08-17T08:37:25;21.70;79.90
46754;DHT22;32500;50.620;3.400;2023-08-17T08:39:52;21.80;79.60
46754;DHT22;32500;50.620;3.400;2023-08-17T08:42:19;21.90;80.00
46754;DHT22;32500;50.620;3.400;2023-08-17T08:44:45;21.90;79.50
46754;DHT22;32500;50.620;3.400;2023-08-17T08:47:12;21.80;79.40
46754;DHT22;32500;50.620;3.400;2023-08-17T08:49:39;21.70;80.70
46754;DHT22;32500;50.620;3.400;2023-08-17T08:52:07;21.70;81.60
46754;DHT22;32500;50.620;3.400;2023-08-17T08:54:35;21.80;80.60
46754;DHT22;32500;50.620;3.400;2023-08-17T08:57:08;21.90;80.50
46754;DHT22;32500;50.620;3.400;2023-08-17T08:59:34;21.90;80.00
46754;DHT22;32500;50.620;3.400;2023-08-17T09:02:01;22.10;79.60
46754;DHT22;32500;50.620;3.400;2023-08-17T09:04:28;22.10;79.30
46754;DHT22;32500;50.620;3.400;2023-08-17T09:06:55;22.10;79.20
46754;DHT22;32500;50.620;3.400;2023-08-17T09:09:22;22.20;79.40
46754;DHT22;32500;50.620;3.400;2023-08-17T09:11:48;22.10;78.20
46754;DHT22;32500;50.620;3.400;2023-08-17T09:14:14;22.00;79.50
46754;DHT22;32500;50.620;3.400;2023-08-17T09:16:39;22.10;80.30
46754;DHT22;32500;50.620;3.400;2023-08-17T09:19:06;22.20;78.40
46754;DHT22;32500;50.620;3.400;2023-08-17T09:21:32;22.20;78.40
46754;DHT22;32500;50.620;3.400;2023-08-17T09:23:58;22.20;77.90
46754;DHT22;32500;50.620;3.400;2023-08-17T09:26:24;22.20;78.60
46754;DHT22;32500;50.620;3.400;2023-08-17T09:28:53;22.20;79.40
46754;DHT22;32500;50.620;3.400;2023-08-17T09:31:24;22.10;79.10
46754;DHT22;32500;50.620;3.400;2023-08-17T09:33:50;22.00;79.30
46754;DHT22;32500;50.620;3.400;2023-08-17T09:36:23;22.10;78.80
46754;DHT22;32500;50.620;3.400;2023-08-17T09:38:50;22.10;78.30
46754;DHT22;32500;50.620;3.400;2023-08-17T09:41:17;22.10;78.90
46754;DHT22;32500;50.620;3.400;2023-08-17T09:43:43;22.10;78.20
46754;DHT22;32500;50.620;3.400;2023-08-17T09:46:09;22.20;78.90
46754;DHT22;32500;50.620;3.400;2023-08-17T09:48:36;22.20;78.30
46754;DHT22;32500;50.620;3.400;2023-08-17T09:51:02;22.30;77.90
46754;DHT22;32500;50.620;3.400;2023-08-17T09:53:27;22.20;78.70
46754;DHT22;32500;50.620;3.400;2023-08-17T09:55:53;22.20;78.20
46754;DHT22;32500;50.620;3.400;2023-08-17T09:58:20;22.10;79.20
46754;DHT22;32500;50.620;3.400;2023-08-17T10:00:50;22.00;80.00
46754;DHT22;32500;50.620;3.400;2023-08-17T10:03:17;22.10;78.20
46754;DHT22;32500;50.620;3.400;2023-08-17T10:05:45;22.10;79.10
46754;DHT22;32500;50.620;3.400;2023-08-17T10:08:12;22.20;78.60
46754;DHT22;32500;50.620;3.400;2023-08-17T10:10:44;22.20;78.10
46754;DHT22;32500;50.620;3.400;2023-08-17T10:13:35;22.20;79.80
46754;DHT22;32500;50.620;3.400;2023-08-17T10:16:08;22.20;78.40
46754;DHT22;32500;50.620;3.400;2023-08-17T10:18:42;22.20;78.90
46754;DHT22;32500;50.620;3.400;2023-08-17T10:21:17;22.30;77.60
46754;DHT22;32500;50.620;3.400;2023-08-17T10:23:47;22.30;77.60
46754;DHT22;32500;50.620;3.400;2023-08-17T10:26:15;22.30;77.40
46754;DHT22;32500;50.620;3.400;2023-08-17T10:28:42;22.30;78.30
46754;DHT22;32500;50.620;3.400;2023-08-17T10:31:08;22.30;77.20
46754;DHT22;32500;50.620;3.400;2023-08-17T10:33:34;22.40;77.90
46754;DHT22;32500;50.620;3.400;2023-08-17T10:36:01;22.40;77.20
46754;DHT22;32500;50.620;3.400;2023-08-17T10:38:27;22.30;79.30
46754;DHT22;32500;50.620;3.400;2023-08-17T10:41:12;22.50;80.90
46754;DHT22;32500;50.620;3.400;2023-08-17T10:43:58;22.60;79.30
46754;DHT22;32500;50.620;3.400;2023-08-17T10:46:34;22.70;78.40
46754;DHT22;32500;50.620;3.400;2023-08-17T10:49:04;22.80;77.20
46754;DHT22;32500;50.620;3.400;2023-08-17T10:51:31;22.90;77.60
46754;DHT22;32500;50.620;3.400;2023-08-17T10:54:01;22.80;76.30
46754;DHT22;32500;50.620;3.400;2023-08-17T10:56:29;22.80;77.10
46754;DHT22;32500;50.620;3.400;2023-08-17T10:58:59;22.90;76.40
46754;DHT22;32500;50.620;3.400;2023-08-17T11:01:51;23.00;75.50
46754;DHT22;32500;50.620;3.400;2023-08-17T11:04:17;23.00;75.60
46754;DHT22;32500;50.620;3.400;2023-08-17T11:06:44;22.80;76.40
46754;DHT22;32500;50.620;3.400;2023-08-17T11:09:10;22.80;75.70
46754;DHT22;32500;50.620;3.400;2023-08-17T11:11:37;22.90;77.30
46754;DHT22;32500;50.620;3.400;2023-08-17T11:14:03;22.90;76.50
46754;DHT22;32500;50.620;3.400;2023-08-17T11:16:29;22.80;76.60
46754;DHT22;32500;50.620;3.400;2023-08-17T11:18:54;22.80;76.80
46754;DHT22;32500;50.620;3.400;2023-08-17T11:21:24;22.90;76.50
46754;DHT22;32500;50.620;3.400;2023-08-17T11:23:49;23.00;77.50
46754;DHT22;32500;50.620;3.400;2023-08-17T11:26:18;23.00;76.20
46754;DHT22;32500;50.620;3.400;2023-08-17T11:28:44;23.00;76.60
46754;DHT22;32500;50.620;3.400;2023-08-17T11:31:12;23.00;76.20
46754;DHT22;32500;50.620;3.400;2023-08-17T11:33:39;23.00;76.20
46754;DHT22;32500;50.620;3.400;2023-08-17T11:36:06;23.00;77.60
46754;DHT22;32500;50.620;3.400;2023-08-17T11:38:37;23.10;75.70
46754;DHT22;32500;50.620;3.400;2023-08-17T11:41:06;23.20;75.60
46754;DHT22;32500;50.620;3.400;2023-08-17T11:43:34;23.20;75.30
46754;DHT22;32500;50.620;3.400;2023-08-17T11:46:01;23.20;75.10
46754;DHT22;32500;50.620;3.400;2023-08-17T11:48:27;23.20;75.00
46754;DHT22;32500;50.620;3.400;2023-08-17T11:50:53;23.20;76.10
46754;DHT22;32500;50.620;3.400;2023-08-17T11:53:20;23.10;75.70
46754;DHT22;32500;50.620;3.400;2023-08-17T11:55:46;23.00;75.60
46754;DHT22;32500;50.620;3.400;2023-08-17T11:58:12;22.90;77.60
46754;DHT22;32500;50.620;3.400;2023-08-17T12:00:42;23.00;76.60
46754;DHT22;32500;50.620;3.400;2023-08-17T12:03:13;23.00;78.20
46754;DHT22;32500;50.620;3.400;2023-08-17T12:05:40;23.00;76.50
46754;DHT22;32500;50.620;3.400;2023-08-17T12:08:07;22.90;76.80
46754;DHT22;32500;50.620;3.400;2023-08-17T12:10:33;23.00;77.50
46754;DHT22;32500;50.620;3.400;2023-08-17T12:13:01;23.00;77.00
46754;DHT22;32500;50.620;3.400;2023-08-17T12:15:33;23.20;76.80
46754;DHT22;32500;50.620;3.400;2023-08-17T12:18:04;23.10;76.50
46754;DHT22;32500;50.620;3.400;2023-08-17T12:20:32;23.10;76.60
46754;DHT22;32500;50.620;3.400;2023-08-17T12:22:59;23.10;76.40
46754;DHT22;32500;50.620;3.400;2023-08-17T12:25:25;23.30;75.90
46754;DHT22;32500;50.620;3.400;2023-08-17T12:27:51;23.40;75.40
46754;DHT22;32500;50.620;3.400;2023-08-17T12:30:30;23.40;75.50
46754;DHT22;32500;50.620;3.400;2023-08-17T12:33:01;23.30;75.90
46754;DHT22;32500;50.620;3.400;2023-08-17T12:35:27;23.30;75.60
46754;DHT22;32500;50.620;3.400;2023-08-17T12:37:53;23.30;76.60
46754;DHT22;32500;50.620;3.400;2023-08-17T12:40:20;23.30;75.90
46754;DHT22;32500;50.620;3.400;2023-08-17T12:42:45;23.40;76.10
46754;DHT22;32500;50.620;3.400;2023-08-17T12:45:11;23.30;75.50
46754;DHT22;32500;50.620;3.400;2023-08-17T12:47:37;23.30;76.70
46754;DHT22;32500;50.620;3.400;2023-08-17T12:50:04;23.20;76.70
46754;DHT22;32500;50.620;3.400;2023-08-17T12:52:29;23.30;75.90
46754;DHT22;32500;50.620;3.400;2023-08-17T12:54:55;23.20;76.80
46754;DHT22;32500;50.620;3.400;2023-08-17T12:57:21;23.20;76.90
46754;DHT22;32500;50.620;3.400;2023-08-17T12:59:46;23.20;77.10
46754;DHT22;32500;50.620;3.400;2023-08-17T13:02:12;23.20;77.40
46754;DHT22;32500;50.620;3.400;2023-08-17T13:04:37;23.10;77.40
46754;DHT22;32500;50.620;3.400;2023-08-17T13:07:03;23.10;78.10
46754;DHT22;32500;50.620;3.400;2023-08-17T13:09:29;23.10;77.20
46754;DHT22;32500;50.620;3.400;2023-08-17T13:11:54;23.20;76.60
46754;DHT22;32500;50.620;3.400;2023-08-17T13:14:20;23.20;77.80
46754;DHT22;32500;50.620;3.400;2023-08-17T13:16:48;23.20;76.50
46754;DHT22;32500;50.620;3.400;2023-08-17T13:19:14;23.20;76.80
46754;DHT22;32500;50.620;3.400;2023-08-17T13:21:40;23.20;77.30
46754;DHT22;32500;50.620;3.400;2023-08-17T13:24:05;23.20;75.30
46754;DHT22;32500;50.620;3.400;2023-08-17T13:26:32;23.20;76.70
46754;DHT22;32500;50.620;3.400;2023-08-17T13:28:57;23.20;76.60
46754;DHT22;32500;50.620;3.400;2023-08-17T13:31:23;23.30;78.20
46754;DHT22;32500;50.620;3.400;2023-08-17T13:33:48;23.40;79.00
46754;DHT22;32500;50.620;3.400;2023-08-17T13:36:14;23.40;77.40
46754;DHT22;32500;50.620;3.400;2023-08-17T13:38:40;23.50;77.40
46754;DHT22;32500;50.620;3.400;2023-08-17T13:41:05;23.50;76.00
46754;DHT22;32500;50.620;3.400;2023-08-17T13:43:31;23.60;74.90
46754;DHT22;32500;50.620;3.400;2023-08-17T13:45:56;23.70;74.30
46754;DHT22;32500;50.620;3.400;2023-08-17T13:48:22;23.70;74.80
46754;DHT22;32500;50.620;3.400;2023-08-17T13:50:47;23.70;75.60
46754;DHT22;32500;50.620;3.400;2023-08-17T13:53:13;23.80;76.20
46754;DHT22;32500;50.620;3.400;2023-08-17T13:55:39;23.80;75.10
46754;DHT22;32500;50.620;3.400;2023-08-17T13:58:04;23.70;75.10
46754;DHT22;32500;50.620;3.400;2023-08-17T14:00:30;23.80;74.20
46754;DHT22;32500;50.620;3.400;2023-08-17T14:02:56;24.00;73.70
46754;DHT22;32500;50.620;3.400;2023-08-17T14:05:21;23.90;74.00
46754;DHT22;32500;50.620;3.400;2023-08-17T14:07:48;24.00;73.00
46754;DHT22;32500;50.620;3.400;2023-08-17T14:10:14;24.00;73.10
46754;DHT22;32500;50.620;3.400;2023-08-17T14:12:39;24.00;74.10
46754;DHT22;32500;50.620;3.400;2023-08-17T14:15:05;23.90;74.80
46754;DHT22;32500;50.620;3.400;2023-08-17T14:17:31;23.90;73.70
46754;DHT22;32500;50.620;3.400;2023-08-17T14:19:57;23.90;73.10
46754;DHT22;32500;50.620;3.400;2023-08-17T14:22:22;24.00;74.10
46754;DHT22;32500;50.620;3.400;2023-08-17T14:24:48;24.00;73.60
46754;DHT22;32500;50.620;3.400;2023-08-17T14:27:13;24.10;73.10
46754;DHT22;32500;50.620;3.400;2023-08-17T14:29:39;24.10;73.10
46754;DHT22;32500;50.620;3.400;2023-08-17T14:32:05;24.10;72.90
46754;DHT22;32500;50.620;3.400;2023-08-17T14:34:30;24.10;72.80
46754;DHT22;32500;50.620;3.400;2023-08-17T14:36:56;24.00;73.60
46754;DHT22;32500;50.620;3.400;2023-08-17T14:39:21;23.90;74.30
46754;DHT22;32500;50.620;3.400;2023-08-17T14:41:47;24.00;73.90
46754;DHT22;32500;50.620;3.400;2023-08-17T14:44:13;24.10;74.10
46754;DHT22;32500;50.620;3.400;2023-08-17T14:46:38;24.10;73.20
46754;DHT22;32500;50.620;3.400;2023-08-17T14:49:04;24.10;74.10
46754;DHT22;32500;50.620;3.400;2023-08-17T14:51:33;24.10;73.30
46754;DHT22;32500;50.620;3.400;2023-08-17T14:54:02;24.10;72.80
46754;DHT22;32500;50.620;3.400;2023-08-17T14:56:27;24.20;72.90
46754;DHT22;32500;50.620;3.400;2023-08-17T14:58:53;24.20;74.00
46754;DHT22;32500;50.620;3.400;2023-08-17T15:01:18;24.30;72.70
46754;DHT22;32500;50.620;3.400;2023-08-17T15:03:44;24.20;73.00
46754;DHT22;32500;50.620;3.400;2023-08-17T15:06:10;24.10;72.80
46754;DHT22;32500;50.620;3.400;2023-08-17T15:08:35;24.20;73.00
46754;DHT22;32500;50.620;3.400;2023-08-17T15:11:01;24.20;72.70
46754;DHT22;32500;50.620;3.400;2023-08-17T15:13:28;24.20;71.40
46754;DHT22;32500;50.620;3.400;2023-08-17T15:15:54;24.20;73.40
46754;DHT22;32500;50.620;3.400;2023-08-17T15:18:20;24.20;73.10
46754;DHT22;32500;50.620;3.400;2023-08-17T15:20:46;24.20;73.40
46754;DHT22;32500;50.620;3.400;2023-08-17T15:23:12;24.20;72.80
46754;DHT22;32500;50.620;3.400;2023-08-17T15:25:37;24.20;72.70
46754;DHT22;32500;50.620;3.400;2023-08-17T15:28:03;24.20;72.20